Time;durP1;ratioP1;P1;durP2;ratioP2;P2;SDS_P1;SDS_P2;PMS_P1;PMS_P2;Temp;Humidity;BMP_temperature;BMP_pressure;BME280_temperature;BME280_humidity;BME280_pressure;Samples;Min_cycle;Max_cycle;Signal;HPM_P1;HPM_P2
2021/09/07 00:00:56;;;;;;;18.33;11.35;;;11.80;99.90;;;;;;5885516;24;20457;-96
2021/09/07 00:04:28;;;;;;;17.83;11.55;;;11.90;99.90;;;;;;5896885;24;20539;-96
2021/09/07 00:11:21;;;;;;;23.90;11.98;;;11.80;99.90;;;;;;6057338;23;20405;-95
2021/09/07 00:14:51;;;;;;;21.50;11.63;;;11.70;99.90;;;;;;6105035;23;20385;-94
2021/09/07 00:18:35;;;;;;;20.75;11.95;;;11.70;99.90;;;;;;6092950;23;20442;-94
2021/09/07 00:21:49;;;;;;;20.43;12.20;;;11.70;99.90;;;;;;6084086;23;20401;-96
2021/09/07 00:25:10;;;;;;;;;;;;;;;;;;;;;
2021/09/07 00:28:35;;;;;;;19.77;12.27;;;11.90;99.90;;;;;;5963544;24;20407;-95
2021/09/07 00:31:37;;;;;;;19.67;11.65;;;11.90;99.90;;;;;;5933968;24;20483;-95
2021/09/07 00:35:08;;;;;;;21.00;11.60;;;11.90;99.90;;;;;;5990307;24;20385;-96
2021/09/07 00:38:29;;;;;;;18.35;11.88;;;11.80;99.90;;;;;;5906865;24;20394;-93
2021/09/07 00:45:44;;;;;;;20.87;11.97;;;11.80;99.90;;;;;;5888779;24;20395;-95
2021/09/07 00:48:53;;;;;;;;;;;;;;;;;;;;;
2021/09/07 00:52:04;;;;;;;18.52;11.27;;;11.80;99.90;;;;;;5912185;24;20475;-95
2021/09/07 00:55:02;;;;;;;20.17;11.73;;;11.90;99.90;;;;;;5916395;24;20433;-95
2021/09/07 01:01:49;;;;;;;20.52;11.73;;;11.80;99.90;;;;;;5904931;24;20421;-96
2021/09/07 01:08:12;;;;;;;17.98;11.35;;;12.00;99.90;;;;;;5930245;24;20409;-95
2021/09/07 01:11:21;;;;;;;18.20;12.37;;;12.00;99.90;;;;;;5940106;24;20405;-94
2021/09/07 01:14:41;;;;;;;23.63;12.17;;;12.10;99.90;;;;;;5981418;23;20409;-95
2021/09/07 01:17:45;;;;;;;16.00;11.13;;;12.10;99.90;;;;;;5963023;24;20406;-95
2021/09/07 01:23:56;;;;;;;18.35;11.35;;;12.00;99.90;;;;;;5903306;24;20395;-96
2021/09/07 01:27:36;;;;;;;19.50;11.35;;;11.90;99.90;;;;;;5907124;24;20409;-96
2021/09/07 01:34:39;;;;;;;20.17;11.70;;;11.80;99.90;;;;;;5963986;24;20469;-95
2021/09/07 01:37:46;;;;;;;19.83;11.82;;;11.90;99.90;;;;;;5932616;24;20783;-95
2021/09/07 01:40:42;;;;;;;20.33;11.15;;;11.80;99.90;;;;;;5931688;24;20463;-94
2021/09/07 01:43:36;;;;;;;23.45;12.18;;;11.80;99.90;;;;;;5934605;24;20389;-95
2021/09/07 01:47:01;;;;;;;17.05;11.27;;;11.90;99.90;;;;;;5933120;24;20389;-95
2021/09/07 01:50:08;;;;;;;18.40;10.80;;;11.90;99.90;;;;;;5935319;24;20461;-95
2021/09/07 01:53:13;;;;;;;;;;;;;;;;;;;;;
2021/09/07 01:56:40;;;;;;;18.98;11.13;;;11.90;99.90;;;;;;5976353;23;20449;-95
2021/09/07 02:06:56;;;;;;;16.25;10.38;;;11.90;99.90;;;;;;5976239;24;20388;-95
2021/09/07 02:10:07;;;;;;;17.13;9.77;;;12.10;99.90;;;;;;5992688;24;20400;-96
2021/09/07 02:13:44;;;;;;;14.60;9.57;;;12.10;99.90;;;;;;6011126;23;20425;-95
2021/09/07 02:16:39;;;;;;;14.27;9.13;;;12.20;99.90;;;;;;6051739;23;20395;-96
2021/09/07 02:23:20;;;;;;;16.57;9.60;;;12.20;99.90;;;;;;5992100;24;20434;-95
2021/09/07 02:27:05;;;;;;;;;;;;;;;;;;;;;
2021/09/07 02:30:33;;;;;;;;;;;;;;;;;;;;;
2021/09/07 02:37:45;;;;;;;;;;;;;;;;;;;;;
2021/09/07 02:44:40;;;;;;;16.92;9.65;;;12.20;99.90;;;;;;5961064;24;20395;-95
2021/09/07 02:51:47;;;;;;;;;;;;;;;;;;;;;
2021/09/07 03:06:17;;;;;;;15.95;9.88;;;12.30;99.90;;;;;;4260745;27;25366161;-96
2021/09/07 03:13:29;;;;;;;15.85;10.13;;;12.20;99.90;;;;;;4928724;29;20437;-96
2021/09/07 03:32:51;;;;;;;;;;;;;;;;;;;;;
2021/09/07 03:36:06;;;;;;;16.00;8.73;;;11.90;99.90;;;;;;4930567;29;20443;-95
2021/09/07 03:39:17;;;;;;;17.80;9.40;;;12.10;99.90;;;;;;4909987;29;20421;-96
2021/09/07 03:42:14;;;;;;;18.55;9.38;;;12.10;99.90;;;;;;4954294;29;20472;-95
2021/09/07 03:53:09;;;;;;;14.00;9.50;;;12.30;99.90;;;;;;4968464;28;20432;-96
2021/09/07 04:00:21;;;;;;;;;;;;;;;;;;;;;
2021/09/07 04:04:04;;;;;;;15.82;9.80;;;12.20;99.90;;;;;;4827447;29;20450;-96
2021/09/07 04:08:28;;;;;;;13.65;8.88;;;12.30;99.90;;;;;;4784023;30;20439;-95
2021/09/07 04:11:12;;;;;;;14.52;9.32;;;12.40;99.90;;;;;;4751339;30;20481;-96
2021/09/07 04:33:52;;;;;;;14.93;8.27;;;12.60;99.90;;;;;;4965017;28;20493;-95
2021/09/07 04:36:40;;;;;;;11.75;8.35;;;12.60;99.90;;;;;;4867305;29;20455;-95
2021/09/07 04:39:51;;;;;;;13.98;8.13;;;12.60;99.90;;;;;;4883973;29;20494;-95
2021/09/07 04:46:35;;;;;;;14.48;8.45;;;12.60;99.90;;;;;;4814007;29;20845;-95
2021/09/07 04:50:22;;;;;;;12.30;8.40;;;12.70;99.90;;;;;;4748896;30;20440;-95
2021/09/07 04:53:48;;;;;;;;;;;;;;;;;;;;;
2021/09/07 04:57:18;;;;;;;;;;;;;;;;;;;;;
2021/09/07 05:09:03;;;;;;;18.33;13.10;;;12.50;99.90;;;;;;4848185;29;20442;-95
2021/09/07 05:23:45;;;;;;;;;;;;;;;;;;;;;
2021/09/07 05:27:02;;;;;;;13.48;8.30;;;12.30;99.90;;;;;;4703906;30;20445;-96
2021/09/07 05:29:51;;;;;;;12.43;8.95;;;12.60;99.90;;;;;;4675688;30;20492;-96
2021/09/07 05:36:37;;;;;;;13.07;8.10;;;12.40;99.90;;;;;;4694299;30;20791;-96
2021/09/07 05:39:27;;;;;;;16.00;9.00;;;12.70;99.90;;;;;;4697633;30;20436;-95
2021/09/07 05:42:23;;;;;;;14.90;8.93;;;12.90;99.90;;;;;;4759384;30;20516;-96
2021/09/07 05:49:31;;;;;;;13.38;8.20;;;13.00;99.90;;;;;;4773449;30;20446;-95
2021/09/07 05:52:50;;;;;;;13.48;8.52;;;12.90;99.90;;;;;;4773112;30;20473;-96
2021/09/07 05:55:47;;;;;;;;;;;;;;;;;;;;;
2021/09/07 06:02:30;;;;;;;;;;;;;;;;;;;;;
2021/09/07 06:08:49;;;;;;;15.23;8.77;;;13.10;99.90;;;;;;4824616;29;20849;-96
2021/09/07 06:11:45;;;;;;;;;;;;;;;;;;;;;
2021/09/07 06:14:52;;;;;;;11.85;7.95;;;13.50;99.90;;;;;;4845847;29;20527;-96
2021/09/07 06:18:10;;;;;;;10.68;7.95;;;13.60;99.90;;;;;;4834172;29;20446;-96
2021/09/07 06:24:26;;;;;;;12.25;8.48;;;13.90;99.90;;;;;;5120708;23;20437;-95
2021/09/07 06:27:42;;;;;;;11.45;7.70;;;14.30;99.90;;;;;;5062607;28;20418;-96
2021/09/07 06:31:01;;;;;;;;;;;;;;;;;;;;;
2021/09/07 06:34:35;;;;;;;11.55;8.30;;;15.10;99.90;;;;;;4925869;29;20429;-96
2021/09/07 06:38:48;;;;;;;;;;;;;;;;;;;;;
2021/09/07 07:37:10;;;;;;;12.20;8.20;;;16.70;99.90;;;;;;3196131;23;20605;-95
2021/09/07 07:40:10;;;;;;;14.53;8.07;;;16.70;99.90;;;;;;4959567;28;20414;-96
2021/09/07 07:43:30;;;;;;;19.58;8.32;;;16.90;99.90;;;;;;5515911;23;20426;-95
2021/09/07 07:46:14;;;;;;;12.05;7.38;;;17.30;99.90;;;;;;4971606;23;20430;-96
2021/09/07 07:49:02;;;;;;;14.07;7.85;;;17.40;99.90;;;;;;4975860;28;20426;-95
2021/09/07 07:52:03;;;;;;;12.52;7.38;;;17.60;99.90;;;;;;4993170;28;20406;-96
2021/09/07 07:54:45;;;;;;;10.90;7.40;;;17.70;99.90;;;;;;4972903;23;20451;-96
2021/09/07 08:01:53;;;;;;;13.52;7.63;;;17.90;99.90;;;;;;4950284;23;20567;-95
2021/09/07 08:09:10;;;;;;;11.75;6.55;;;18.10;99.90;;;;;;4996752;23;20417;-95
2021/09/07 08:11:58;;;;;;;11.35;7.20;;;18.10;99.90;;;;;;4990122;28;20437;-94
2021/09/07 08:14:38;;;;;;;12.43;7.47;;;17.90;99.90;;;;;;4987384;28;20430;-95
2021/09/07 08:17:08;;;;;;;10.20;7.05;;;17.90;99.90;;;;;;4993805;23;20437;-95
2021/09/07 08:19:37;;;;;;;12.23;7.18;;;17.90;99.90;;;;;;4986734;28;20501;-94
2021/09/07 08:22:09;;;;;;;10.47;6.83;;;18.00;99.90;;;;;;4990420;28;20457;-95
2021/09/07 08:24:51;;;;;;;12.00;6.88;;;18.10;99.90;;;;;;5006280;28;20438;-96
2021/09/07 08:27:18;;;;;;;10.07;6.90;;;18.10;99.90;;;;;;4986944;28;20434;-95
2021/09/07 08:29:51;;;;;;;10.35;6.90;;;18.20;99.90;;;;;;5013578;23;20972;-95
2021/09/07 08:32:39;;;;;;;8.93;6.70;;;18.50;99.90;;;;;;4997519;23;20410;-96
2021/09/07 08:35:09;;;;;;;14.52;7.65;;;18.70;99.90;;;;;;4987446;28;20445;-94
2021/09/07 08:37:45;;;;;;;12.52;6.90;;;18.90;99.90;;;;;;5010211;23;20462;-95
2021/09/07 08:40:15;;;;;;;10.30;6.70;;;19.10;99.90;;;;;;4984999;28;20472;-95
2021/09/07 08:42:53;;;;;;;11.07;7.07;;;19.20;99.90;;;;;;4988715;28;20414;-96
2021/09/07 08:45:23;;;;;;;11.25;7.18;;;19.20;99.90;;;;;;4987700;28;20441;-95
2021/09/07 08:48:29;;;;;;;11.80;7.15;;;19.30;99.90;;;;;;5002616;23;20426;-95
2021/09/07 08:51:26;;;;;;;10.95;6.80;;;19.40;99.90;;;;;;4984722;28;20457;-95
2021/09/07 08:54:20;;;;;;;11.77;6.90;;;19.20;99.90;;;;;;4988914;28;20441;-96
2021/09/07 09:00:11;;;;;;;9.35;6.47;;;19.50;99.90;;;;;;4998453;23;20457;-95
2021/09/07 09:02:43;;;;;;;10.25;6.65;;;19.40;99.90;;;;;;4989008;28;20418;-95
2021/09/07 09:05:32;;;;;;;11.15;7.05;;;19.40;99.90;;;;;;5082527;23;20498;-94
2021/09/07 09:08:09;;;;;;;12.67;7.20;;;19.40;99.90;;;;;;4991246;28;20457;-95
2021/09/07 09:10:40;;;;;;;11.35;7.35;;;19.20;99.90;;;;;;4986947;28;20414;-95
2021/09/07 09:13:23;;;;;;;12.27;7.25;;;19.00;99.90;;;;;;4962427;23;20422;-95
2021/09/07 09:16:04;;;;;;;10.48;7.03;;;18.90;99.90;;;;;;4948970;28;20443;-96
2021/09/07 09:18:35;;;;;;;9.10;7.10;;;18.80;99.90;;;;;;4950226;28;20463;-96
2021/09/07 09:21:27;;;;;;;9.43;7.32;;;18.60;99.90;;;;;;4986287;23;20421;-95
2021/09/07 09:24:22;;;;;;;10.55;7.78;;;18.70;99.90;;;;;;5027497;23;20441;-95
2021/09/07 09:26:54;;;;;;;12.77;7.75;;;18.70;99.90;;;;;;4989791;28;20430;-96
2021/09/07 09:29:41;;;;;;;13.35;7.72;;;18.70;99.90;;;;;;5003042;23;20427;-94
2021/09/07 09:34:44;;;;;;;11.40;7.57;;;19.00;99.90;;;;;;5035230;23;20497;-96
2021/09/07 09:37:20;;;;;;;12.38;7.93;;;19.50;99.90;;;;;;4987937;28;20452;-96
2021/09/07 09:39:53;;;;;;;12.43;7.97;;;19.70;99.90;;;;;;4987313;28;20512;-96
2021/09/07 09:42:37;;;;;;;13.47;7.90;;;19.80;99.90;;;;;;4987718;28;20774;-96
2021/09/07 09:45:18;;;;;;;14.10;7.88;;;19.80;99.90;;;;;;4986875;28;20449;-96
2021/09/07 09:47:52;;;;;;;11.13;7.40;;;19.80;99.90;;;;;;5008497;23;20410;-95
2021/09/07 09:50:26;;;;;;;15.00;8.50;;;19.90;99.90;;;;;;5160835;23;20986;-96
2021/09/07 09:56:16;;;;;;;11.98;8.25;;;19.90;99.90;;;;;;4927228;29;20489;-95
2021/09/07 09:59:03;;;;;;;12.40;8.45;;;19.80;99.90;;;;;;4954682;23;20417;-95
2021/09/07 10:01:30;;;;;;;14.05;8.60;;;20.00;99.90;;;;;;4947850;28;20853;-95
2021/09/07 10:04:04;;;;;;;13.00;8.32;;;20.00;99.90;;;;;;4995983;23;20802;-96
2021/09/07 10:07:15;;;;;;;12.10;7.93;;;20.20;99.90;;;;;;4988192;28;20434;-96
2021/09/07 10:10:32;;;;;;;11.90;7.90;;;20.20;99.90;;;;;;4989955;28;20520;-95
2021/09/07 10:13:27;;;;;;;13.43;8.15;;;20.50;99.90;;;;;;4928736;29;20484;-95
2021/09/07 10:16:13;;;;;;;11.77;7.95;;;20.60;99.90;;;;;;4928930;29;20502;-96
2021/09/07 10:18:53;;;;;;;12.93;8.63;;;20.80;99.90;;;;;;4932888;29;20519;-95
2021/09/07 10:26:57;;;;;;;11.77;7.85;;;20.80;99.90;;;;;;4911975;29;20511;-95
2021/09/07 10:29:45;;;;;;;10.75;7.45;;;20.70;99.90;;;;;;4891104;29;20949;-96
2021/09/07 10:32:27;;;;;;;11.40;7.43;;;20.70;99.90;;;;;;4890983;29;20413;-96
2021/09/07 10:35:11;;;;;;;10.93;7.40;;;20.80;99.90;;;;;;5001044;23;20451;-95
2021/09/07 10:42:04;;;;;;;10.90;7.80;;;20.70;99.90;;;;;;5005365;28;20434;-95
2021/09/07 10:45:28;;;;;;;12.02;7.47;;;20.90;99.90;;;;;;5118135;23;20431;-95
2021/09/07 10:48:41;;;;;;;10.35;7.20;;;21.30;99.90;;;;;;5101466;23;20453;-95
2021/09/07 10:51:08;;;;;;;11.20;7.65;;;21.30;99.90;;;;;;4976055;23;20448;-96
2021/09/07 10:53:38;;;;;;;12.45;7.22;;;21.20;99.90;;;;;;4969440;28;20435;-96
2021/09/07 10:56:31;;;;;;;12.13;7.80;;;21.10;99.90;;;;;;4980411;23;20450;-95
2021/09/07 10:59:03;;;;;;;10.90;7.70;;;20.90;99.90;;;;;;4988615;28;20419;-96
2021/09/07 11:01:33;;;;;;;10.82;7.50;;;20.80;99.90;;;;;;5009043;23;20509;-95
2021/09/07 11:04:58;;;;;;;13.95;7.78;;;20.90;99.90;;;;;;4986027;28;20769;-96
2021/09/07 11:07:51;;;;;;;11.38;7.55;;;21.20;99.90;;;;;;5004551;28;20461;-96
2021/09/07 11:10:18;;;;;;;10.95;7.90;;;21.30;99.90;;;;;;4988832;28;20414;-95
2021/09/07 11:13:08;;;;;;;13.32;8.05;;;21.30;99.90;;;;;;5039666;23;20526;-95
2021/09/07 11:16:02;;;;;;;16.03;7.83;;;21.70;99.90;;;;;;4986308;28;20418;-95
2021/09/07 11:18:36;;;;;;;11.38;7.95;;;21.70;99.90;;;;;;4988624;28;20430;-95
2021/09/07 11:21:11;;;;;;;12.80;8.47;;;21.90;99.90;;;;;;4995103;23;20437;-94
2021/09/07 11:23:43;;;;;;;11.35;7.57;;;22.10;99.90;;;;;;4966406;28;20475;-94
2021/09/07 11:26:16;;;;;;;12.45;8.13;;;22.30;99.90;;;;;;4971147;28;20424;-95
2021/09/07 11:28:48;;;;;;;13.65;8.07;;;22.50;99.90;;;;;;4965668;23;20544;-95
2021/09/07 11:33:54;;;;;;;11.75;7.70;;;22.90;99.90;;;;;;5038135;23;20418;-95
2021/09/07 11:39:45;;;;;;;13.63;7.85;;;23.10;99.90;;;;;;4955707;23;20486;-95
2021/09/07 11:42:46;;;;;;;10.43;7.65;;;23.20;99.90;;;;;;4994015;28;20760;-96
2021/09/07 11:45:53;;;;;;;9.87;6.50;;;23.20;98.00;;;;;;5011321;23;20414;-96
2021/09/07 11:48:25;;;;;;;9.85;6.70;;;23.50;93.70;;;;;;4973259;28;20446;-96
2021/09/07 11:50:55;;;;;;;14.75;8.43;;;23.20;95.10;;;;;;5143370;23;20457;-95
2021/09/07 11:53:22;;;;;;;13.85;8.90;;;22.90;97.10;;;;;;4987585;23;20479;-95
2021/09/07 11:55:59;;;;;;;14.40;7.47;;;22.80;98.50;;;;;;4969467;28;20428;-96
2021/09/07 11:58:34;;;;;;;18.80;9.90;;;22.80;98.00;;;;;;4987909;23;20755;-96
2021/09/07 12:04:24;;;;;;;12.43;7.78;;;23.30;99.50;;;;;;5010967;23;20433;-96
2021/09/07 12:07:20;;;;;;;13.43;8.63;;;23.80;98.20;;;;;;4990536;28;20427;-95
2021/09/07 12:10:05;;;;;;;12.63;8.70;;;24.30;96.80;;;;;;4989462;28;20853;-96
2021/09/07 12:12:36;;;;;;;11.95;8.60;;;24.40;97.50;;;;;;4990817;28;20477;-95
2021/09/07 12:15:37;;;;;;;12.40;8.10;;;24.60;95.90;;;;;;4988794;28;20474;-96
2021/09/07 12:18:06;;;;;;;13.23;8.30;;;24.20;92.70;;;;;;4988051;28;20406;-96
2021/09/07 12:20:36;;;;;;;11.15;7.80;;;24.00;94.30;;;;;;4988001;28;20497;-96
2021/09/07 12:23:06;;;;;;;13.97;8.17;;;24.30;93.70;;;;;;4989237;28;20450;-96
2021/09/07 12:25:59;;;;;;;13.45;8.48;;;24.60;93.70;;;;;;4988860;28;20458;-95
2021/09/07 12:31:41;;;;;;;12.95;8.73;;;23.90;92.90;;;;;;5194946;23;20446;-95
2021/09/07 12:34:48;;;;;;;14.20;9.63;;;23.60;94.90;;;;;;5021389;23;20446;-96
2021/09/07 12:37:16;;;;;;;13.70;10.32;;;23.30;95.10;;;;;;5016597;23;20507;31
2021/09/07 12:39:43;;;;;;;17.02;10.85;;;23.20;94.10;;;;;;4906501;29;20492;-95
2021/09/07 12:42:11;;;;;;;14.30;10.20;;;23.10;96.00;;;;;;4909118;29;20836;-95
2021/09/07 12:44:41;;;;;;;16.77;9.73;;;23.00;96.60;;;;;;4909044;29;20437;-95
2021/09/07 12:47:09;;;;;;;13.50;9.50;;;23.10;97.50;;;;;;4911369;29;20516;-96
2021/09/07 12:49:39;;;;;;;16.13;9.90;;;23.20;95.70;;;;;;4909005;29;20426;-95
2021/09/07 12:52:06;;;;;;;13.60;9.23;;;23.50;95.90;;;;;;4991188;23;20445;-95
2021/09/07 12:54:33;;;;;;;13.52;9.27;;;23.40;95.60;;;;;;4991670;28;20515;-95
2021/09/07 12:57:00;;;;;;;16.25;10.00;;;23.40;96.80;;;;;;4988146;28;20437;-95
2021/09/07 12:59:27;;;;;;;17.52;11.35;;;23.40;97.70;;;;;;4988919;28;20429;-95
2021/09/07 13:01:55;;;;;;;21.20;12.20;;;23.20;98.80;;;;;;4987552;28;20426;-95
2021/09/07 13:04:22;;;;;;;17.40;11.05;;;23.10;99.10;;;;;;4986045;28;20789;-96
2021/09/07 13:07:00;;;;;;;23.10;12.13;;;23.10;96.50;;;;;;4986140;28;20442;-96
2021/09/07 13:09:27;;;;;;;9.43;6.53;;;23.00;99.40;;;;;;4993875;23;20465;-96
2021/09/07 13:11:57;;;;;;;10.20;6.20;;;23.00;91.20;;;;;;5009052;23;20465;-96
2021/09/07 13:14:26;;;;;;;9.77;6.37;;;22.90;88.90;;;;;;4988250;28;20507;-95
2021/09/07 13:16:53;;;;;;;9.43;6.03;;;22.60;90.90;;;;;;4998917;28;20417;-94
2021/09/07 13:19:21;;;;;;;8.95;6.15;;;22.50;93.10;;;;;;5009279;23;20442;-95
2021/09/07 13:22:09;;;;;;;10.50;5.85;;;22.50;91.40;;;;;;4995469;28;20398;-95
2021/09/07 13:24:36;;;;;;;10.18;6.10;;;22.60;87.10;;;;;;5002970;23;20447;-96
2021/09/07 13:27:07;;;;;;;8.35;5.63;;;22.70;85.00;;;;;;5005685;28;21008;-96
2021/09/07 13:29:34;;;;;;;8.60;5.70;;;22.90;82.10;;;;;;4993723;23;20430;-95
2021/09/07 13:32:02;;;;;;;11.55;5.55;;;23.10;90.00;;;;;;4985248;23;20427;-95
2021/09/07 13:34:29;;;;;;;10.88;6.07;;;23.60;84.50;;;;;;4992223;28;20457;-95
2021/09/07 13:36:57;;;;;;;10.80;5.90;;;24.10;79.30;;;;;;4986586;28;20472;-95
2021/09/07 13:39:27;;;;;;;8.50;5.68;;;24.80;79.10;;;;;;5022186;23;20442;-95
2021/09/07 13:41:55;;;;;;;10.07;5.65;;;25.60;82.20;;;;;;4931030;28;20958;-95
2021/09/07 13:44:27;;;;;;;7.78;5.47;;;26.50;74.80;;;;;;4933000;29;20440;-95
2021/09/07 13:47:01;;;;;;;7.97;6.00;;;26.50;78.10;;;;;;4973613;23;20420;-96
2021/09/07 13:49:28;;;;;;;6.47;5.67;;;26.70;67.90;;;;;;4979666;23;20515;-95
2021/09/07 13:51:55;;;;;;;8.02;5.63;;;26.90;76.50;;;;;;4981951;28;20434;-95
2021/09/07 13:54:26;;;;;;;8.70;5.68;;;27.10;72.80;;;;;;4985910;28;20474;-96
2021/09/07 13:56:53;;;;;;;8.20;5.47;;;26.70;71.60;;;;;;4986264;28;20441;-96
2021/09/07 13:59:20;;;;;;;8.13;5.72;;;26.50;66.40;;;;;;4988055;28;20513;-95
2021/09/07 14:01:49;;;;;;;9.00;5.50;;;26.40;66.70;;;;;;4985608;28;20438;-96
2021/09/07 14:04:21;;;;;;;7.77;6.07;;;26.30;76.40;;;;;;4984673;28;20925;-95
2021/09/07 14:06:48;;;;;;;8.38;5.93;;;27.30;72.60;;;;;;4983393;28;20446;-96
2021/09/07 14:09:18;;;;;;;7.65;5.50;;;27.50;62.50;;;;;;4983426;28;20798;-96
2021/09/07 14:11:51;;;;;;;6.90;5.63;;;27.40;69.70;;;;;;4985718;28;20465;-96
2021/09/07 14:14:18;;;;;;;8.63;5.68;;;27.10;64.40;;;;;;4984922;28;20465;-95
2021/09/07 14:16:48;;;;;;;8.90;5.97;;;27.20;70.20;;;;;;4990442;28;20430;-95
2021/09/07 14:19:18;;;;;;;8.80;5.60;;;27.10;66.80;;;;;;4988977;28;20433;-96
2021/09/07 14:21:48;;;;;;;7.15;5.43;;;27.40;68.30;;;;;;4988616;28;20937;-96
2021/09/07 14:26:48;;;;;;;10.15;5.43;;;27.20;63.70;;;;;;4924160;29;20540;-95
2021/09/07 14:29:15;;;;;;;8.63;5.85;;;27.10;67.10;;;;;;4910246;29;20429;-96
2021/09/07 14:31:47;;;;;;;10.13;6.00;;;27.50;59.90;;;;;;4974478;23;20450;-95
2021/09/07 14:34:19;;;;;;;7.22;5.53;;;27.80;64.40;;;;;;5012359;23;20445;-95
2021/09/07 14:36:49;;;;;;;7.67;5.40;;;27.90;61.50;;;;;;4994617;23;20774;-96
2021/09/07 14:39:19;;;;;;;8.10;5.35;;;27.70;61.90;;;;;;4992421;28;20441;-95
2021/09/07 14:41:52;;;;;;;8.73;5.85;;;28.00;68.10;;;;;;5002245;23;20450;-96
2021/09/07 14:44:29;;;;;;;9.10;5.90;;;28.40;65.00;;;;;;4999627;23;20468;-95
2021/09/07 14:46:58;;;;;;;10.75;5.97;;;29.10;66.80;;;;;;4983518;28;20755;-96
2021/09/07 14:49:25;;;;;;;10.35;5.75;;;28.70;65.40;;;;;;4994868;23;20817;-96
2021/09/07 14:51:58;;;;;;;7.88;5.82;;;28.20;60.00;;;;;;4988188;28;20437;-95
2021/09/07 14:54:36;;;;;;;14.65;7.25;;;27.40;60.40;;;;;;4985101;28;20429;-95
2021/09/07 14:57:27;;;;;;;11.95;6.70;;;26.50;69.00;;;;;;4986324;28;20936;-96
2021/09/07 15:08:11;;;;;;;14.77;7.10;;;25.70;68.30;;;;;;5380683;23;20437;-96
2021/09/07 15:14:08;;;;;;;10.82;6.40;;;25.20;71.40;;;;;;5475799;23;20526;-96
2021/09/07 15:17:15;;;;;;;10.48;6.10;;;24.20;78.40;;;;;;5478013;23;20427;-96
2021/09/07 15:20:22;;;;;;;10.65;6.72;;;23.10;82.80;;;;;;4974391;28;20493;-96
2021/09/07 15:42:34;;;;;;;8.40;6.33;;;25.60;69.40;;;;;;5113962;23;20548;-94
2021/09/07 15:45:01;;;;;;;9.18;6.00;;;24.70;76.80;;;;;;4984465;28;20511;-96
2021/09/07 15:47:28;;;;;;;8.48;6.30;;;23.90;82.10;;;;;;4988471;28;20481;-96
2021/09/07 15:49:56;;;;;;;9.00;6.68;;;23.10;84.20;;;;;;4988781;28;20493;-96
2021/09/07 15:52:23;;;;;;;10.03;6.60;;;22.60;87.80;;;;;;4986903;28;20513;-94
2021/09/07 15:54:51;;;;;;;10.70;6.97;;;22.30;90.90;;;;;;4984379;28;20431;-96
2021/09/07 15:57:19;;;;;;;16.60;8.70;;;22.00;92.00;;;;;;4986208;28;20462;-95
2021/09/07 15:59:46;;;;;;;12.07;7.53;;;21.70;91.70;;;;;;4985576;23;20946;-95
2021/09/07 16:02:15;;;;;;;18.95;8.25;;;21.70;91.50;;;;;;4967371;28;20438;-95
2021/09/07 16:04:45;;;;;;;15.65;9.07;;;21.80;91.70;;;;;;4984307;23;20438;-95
2021/09/07 16:07:12;;;;;;;14.05;8.50;;;21.80;91.10;;;;;;4988339;28;20450;-96
2021/09/07 16:12:07;;;;;;;13.63;8.57;;;21.70;91.20;;;;;;4994086;23;20439;-95
2021/09/07 16:14:34;;;;;;;15.07;8.70;;;21.60;91.60;;;;;;4968093;28;20958;-93
2021/09/07 16:17:01;;;;;;;15.95;8.50;;;21.40;90.70;;;;;;4968305;28;20420;-94
2021/09/07 16:52:01;;;;;;;14.90;7.43;;;20.90;93.90;;;;;;5189000;23;20437;-96
2021/09/07 17:22:05;;;;;;;17.20;8.90;;;18.00;99.90;;;;;;4912990;29;20416;-95
2021/09/07 17:24:52;;;;;;;14.45;8.88;;;17.40;99.90;;;;;;4853246;23;20418;31
2021/09/07 17:27:22;;;;;;;17.65;8.85;;;17.10;99.90;;;;;;2740240;23;20613;-95
2021/09/07 17:38:52;;;;;;;13.77;9.45;;;16.10;99.90;;;;;;5042208;23;20436;-95
2021/09/07 17:41:54;;;;;;;20.60;10.48;;;15.90;99.90;;;;;;5086670;23;20440;-94
2021/09/07 17:44:47;;;;;;;17.88;10.20;;;15.70;99.90;;;;;;5156283;23;20519;-93
2021/09/07 17:47:30;;;;;;;16.95;10.13;;;15.30;99.90;;;;;;5023917;23;20500;-94
2021/09/07 17:53:07;;;;;;;21.35;9.80;;;14.90;99.90;;;;;;5053059;23;20414;-94
2021/09/07 17:56:01;;;;;;;18.13;10.35;;;15.00;99.90;;;;;;2796548;23;20653;-94
2021/09/07 17:58:29;;;;;;;15.25;9.52;;;14.90;99.90;;;;;;4962489;28;20514;-95
2021/09/07 18:00:56;;;;;;;19.27;10.15;;;14.80;99.90;;;;;;4963843;28;20435;-93
2021/09/07 18:03:41;;;;;;;16.73;10.17;;;14.50;99.90;;;;;;4978904;28;20435;-94
2021/09/07 18:06:09;;;;;;;15.82;9.88;;;14.30;99.90;;;;;;4976458;28;20518;-94
2021/09/07 18:08:38;;;;;;;18.05;10.25;;;14.30;99.90;;;;;;4964561;28;20483;-94
2021/09/07 18:11:05;;;;;;;19.83;10.40;;;14.30;99.90;;;;;;4986181;28;20524;-94
2021/09/07 18:13:39;;;;;;;18.87;10.53;;;14.10;99.90;;;;;;4985119;28;20467;-95
2021/09/07 18:16:09;;;;;;;16.52;9.93;;;14.20;99.90;;;;;;5002611;23;20438;-94
2021/09/07 18:18:44;;;;;;;19.85;10.52;;;14.10;99.90;;;;;;5005143;28;20501;-96
2021/09/07 18:21:12;;;;;;;19.13;11.05;;;14.00;99.90;;;;;;4986804;28;20452;-94
2021/09/07 18:23:40;;;;;;;20.27;11.55;;;14.00;99.90;;;;;;4984919;28;20426;-95
2021/09/07 18:26:07;;;;;;;17.40;10.75;;;14.20;99.90;;;;;;4984116;28;20442;-95
2021/09/07 18:28:35;;;;;;;19.47;11.47;;;14.20;99.90;;;;;;4998072;28;20399;-95
2021/09/07 18:31:02;;;;;;;16.57;10.90;;;14.10;99.90;;;;;;4987893;28;20759;-94
2021/09/07 18:33:29;;;;;;;18.63;11.55;;;14.20;99.90;;;;;;4984234;28;20422;-95
2021/09/07 18:35:57;;;;;;;20.77;11.70;;;14.20;99.90;;;;;;4966895;28;20473;-95
2021/09/07 18:38:24;;;;;;;23.75;12.63;;;14.20;99.90;;;;;;4981793;28;20933;-96
2021/09/07 18:40:52;;;;;;;23.10;12.60;;;14.20;99.90;;;;;;4983744;28;20454;-95
2021/09/07 18:43:20;;;;;;;22.40;12.73;;;14.10;99.90;;;;;;4980727;28;20434;-96
2021/09/07 18:48:13;;;;;;;20.38;12.45;;;13.90;99.90;;;;;;5010123;23;20529;-96
2021/09/07 18:50:40;;;;;;;18.55;12.18;;;13.60;99.90;;;;;;4983713;28;20513;-95
2021/09/07 18:53:07;;;;;;;19.13;12.57;;;13.50;99.90;;;;;;4982158;28;20774;-95
2021/09/07 18:55:34;;;;;;;20.97;12.60;;;13.60;99.90;;;;;;4983067;28;20441;-94
2021/09/07 18:58:03;;;;;;;17.40;12.23;;;13.60;99.90;;;;;;4985791;28;20516;-96
2021/09/07 19:00:30;;;;;;;16.33;12.05;;;13.70;99.90;;;;;;4984793;28;20426;-95
2021/09/07 19:02:59;;;;;;;20.65;13.00;;;13.70;99.90;;;;;;4986991;28;20422;-96
2021/09/07 19:05:27;;;;;;;17.55;12.52;;;13.60;99.90;;;;;;4979659;28;20510;-94
2021/09/07 19:07:54;;;;;;;18.38;12.25;;;13.40;99.90;;;;;;4978513;28;20438;-94
2021/09/07 19:10:29;;;;;;;19.60;12.23;;;13.40;99.90;;;;;;4997539;28;20422;-95
2021/09/07 19:13:12;;;;;;;19.83;12.10;;;13.40;99.90;;;;;;4995423;28;20422;-95
2021/09/07 19:15:40;;;;;;;19.60;11.90;;;13.40;99.90;;;;;;4978244;28;20510;-95
2021/09/07 19:18:08;;;;;;;18.88;13.27;;;13.30;99.90;;;;;;4978318;28;20442;-95
2021/09/07 19:20:42;;;;;;;20.52;12.73;;;13.20;99.90;;;;;;4977920;28;20419;-94
2021/09/07 19:23:18;;;;;;;23.50;14.75;;;13.10;99.90;;;;;;4996912;28;20422;-94
2021/09/07 19:25:50;;;;;;;21.10;13.65;;;13.00;99.90;;;;;;4979229;28;20777;-95
2021/09/07 19:28:24;;;;;;;24.80;14.70;;;13.00;99.90;;;;;;4980980;28;20426;-94
2021/09/07 19:31:13;;;;;;;20.90;13.87;;;12.90;99.90;;;;;;4968515;28;20802;-94
2021/09/07 19:33:42;;;;;;;21.33;14.07;;;12.90;99.90;;;;;;4979051;28;20422;-95
2021/09/07 19:36:11;;;;;;;19.33;13.77;;;12.80;99.90;;;;;;4978449;28;20789;-95
2021/09/07 19:38:39;;;;;;;22.88;14.88;;;12.90;99.90;;;;;;4978257;28;20465;-96
2021/09/07 19:41:06;;;;;;;19.25;13.40;;;12.90;99.90;;;;;;4978625;28;20422;-96
2021/09/07 19:43:37;;;;;;;26.13;14.15;;;13.00;99.90;;;;;;4980785;28;20422;-96
2021/09/07 19:46:05;;;;;;;27.48;15.18;;;12.90;99.90;;;;;;4979031;28;20430;-95
2021/09/07 19:48:35;;;;;;;22.25;15.40;;;12.80;99.90;;;;;;4963707;28;20427;-95
2021/09/07 19:51:02;;;;;;;23.47;15.83;;;12.80;99.90;;;;;;4965336;28;20463;-96
2021/09/07 19:53:33;;;;;;;23.38;15.88;;;12.80;99.90;;;;;;4983501;28;20428;-96
2021/09/07 19:56:02;;;;;;;23.98;15.85;;;12.80;99.90;;;;;;4981051;28;20503;-95
2021/09/07 19:58:30;;;;;;;22.13;14.67;;;13.00;99.90;;;;;;4982318;28;20488;-95
2021/09/07 20:00:57;;;;;;;24.63;17.17;;;12.80;99.90;;;;;;4982101;28;20929;-95
2021/09/07 20:03:26;;;;;;;24.27;16.30;;;12.80;99.90;;;;;;4965609;28;20484;-96
2021/09/07 20:05:54;;;;;;;24.73;15.87;;;12.90;99.90;;;;;;4981945;28;20429;-94
2021/09/07 20:08:22;;;;;;;23.95;16.20;;;12.90;99.90;;;;;;4981406;28;20925;-95
2021/09/07 20:10:49;;;;;;;25.03;16.33;;;12.90;99.90;;;;;;4996159;28;20663;-94
2021/09/07 20:13:16;;;;;;;24.25;16.58;;;12.90;99.90;;;;;;4991617;28;20425;-96
2021/09/07 20:15:44;;;;;;;25.45;16.23;;;12.80;99.90;;;;;;4981458;28;20427;-95
2021/09/07 20:18:12;;;;;;;26.95;16.52;;;12.90;99.90;;;;;;4982552;28;20418;-95
2021/09/07 20:20:39;;;;;;;22.65;16.98;;;13.00;99.90;;;;;;4965702;28;20949;-96
2021/09/07 20:23:08;;;;;;;26.20;17.02;;;13.00;99.90;;;;;;4981330;28;20489;-95